createdAt,value
2023-03-07T00:00:44.107Z,99291.88
2023-03-07T00:03:15.676Z,99290.16
2023-03-07T00:05:42.312Z,99286.94
2023-03-07T00:08:09.174Z,99284.13
2023-03-07T00:10:35.610Z,99278.84
2023-03-07T00:13:02.018Z,99272.47
2023-03-07T00:15:28.430Z,99273.16
2023-03-07T00:17:54.793Z,99274.25
2023-03-07T00:20:21.196Z,99269.25
2023-03-07T00:22:47.632Z,99273.72
2023-03-07T00:25:17.729Z,99265.94
2023-03-07T00:27:44.143Z,99265.16
2023-03-07T00:30:12.501Z,99265.63
2023-03-07T00:32:39.302Z,99265.66
2023-03-07T00:35:06.191Z,99266.38
2023-03-07T00:37:32.578Z,99265.16
2023-03-07T00:39:58.953Z,99245.25
2023-03-07T00:42:25.324Z,99258.66
2023-03-07T00:44:51.715Z,99246.09
2023-03-07T00:47:18.125Z,99236.25
2023-03-07T00:49:44.586Z,99237.50
2023-03-07T00:52:11.110Z,99235.69
2023-03-07T00:54:37.696Z,99224.50
2023-03-07T00:57:04.072Z,99222.81
2023-03-07T00:59:30.482Z,99232.22
2023-03-07T01:01:56.830Z,99227.28
2023-03-07T01:04:23.306Z,99222.66
2023-03-07T01:06:50.445Z,99211.56
2023-03-07T01:09:16.960Z,99213.88
2023-03-07T01:11:43.531Z,99206.72
2023-03-07T01:14:10.236Z,99206.59
2023-03-07T01:16:37.873Z,99203.94
2023-03-07T01:19:06.865Z,99197.66
2023-03-07T01:21:35.979Z,99197.56
2023-03-07T01:24:02.513Z,99199.47
2023-03-07T01:26:31.154Z,99189.97
2023-03-07T01:28:59.467Z,99196.00
2023-03-07T01:31:26.411Z,99186.84
2023-03-07T01:33:53.672Z,99187.09
2023-03-07T01:36:29.827Z,99178.34
2023-03-07T01:39:21.960Z,99173.56
2023-03-07T01:41:48.463Z,99168.91
2023-03-07T01:44:20.426Z,99163.81
2023-03-07T01:46:50.541Z,99171.06
2023-03-07T01:49:38.956Z,99169.00
2023-03-07T01:52:07.681Z,99155.38
2023-03-07T01:54:36.554Z,99161.25
2023-03-07T01:57:04.338Z,99156.63
2023-03-07T01:59:44.601Z,99150.97
2023-03-07T02:02:16.926Z,99145.03
2023-03-07T02:04:51.375Z,99150.56
2023-03-07T02:07:19.956Z,99146.91
2023-03-07T02:09:47.784Z,99148.59
2023-03-07T02:12:14.805Z,99141.66
2023-03-07T02:14:43.996Z,99143.56
2023-03-07T02:17:10.621Z,99133.53
2023-03-07T02:19:58.259Z,99126.44
2023-03-07T02:22:24.915Z,99130.41
2023-03-07T02:24:58.245Z,99127.25
2023-03-07T02:27:25.640Z,99125.09
2023-03-07T02:29:52.550Z,99120.97
2023-03-07T02:32:19.023Z,99121.13
2023-03-07T02:34:45.456Z,99112.72
2023-03-07T02:37:15.303Z,99115.09
2023-03-07T02:39:43.032Z,99111.28
2023-03-07T02:42:12.517Z,99116.88
2023-03-07T02:44:38.965Z,99108.16
2023-03-07T02:47:08.856Z,99102.50
2023-03-07T02:49:36.265Z,99095.56
2023-03-07T02:52:03.159Z,99092.66
2023-03-07T02:54:29.613Z,99097.94
2023-03-07T02:56:56.273Z,99095.13
2023-03-07T02:59:22.680Z,99096.34
2023-03-07T03:01:49.111Z,99097.31
2023-03-07T03:04:15.543Z,99096.19
2023-03-07T03:06:41.936Z,99093.78
2023-03-07T03:09:08.569Z,99094.47
2023-03-07T03:11:34.931Z,99091.41
2023-03-07T03:14:01.314Z,99093.84
2023-03-07T03:16:27.698Z,99081.91
2023-03-07T03:18:54.168Z,99085.69
2023-03-07T03:21:21.022Z,99082.44
2023-03-07T03:23:47.380Z,99081.59
2023-03-07T03:26:14.162Z,99062.66
2023-03-07T03:28:40.593Z,99079.63
2023-03-07T03:31:10.272Z,99082.50
2023-03-07T03:33:37.067Z,99076.53
2023-03-07T03:36:12.352Z,99080.78
2023-03-07T03:38:39.258Z,99080.22
2023-03-07T03:41:07.516Z,99084.63
2023-03-07T03:43:34.789Z,99079.66
2023-03-07T03:46:03.503Z,99083.63
2023-03-07T03:48:30.086Z,99083.75
2023-03-07T03:51:08.041Z,99080.84
2023-03-07T03:53:36.262Z,99073.66
2023-03-07T03:56:12.093Z,99074.06
2023-03-07T03:58:39.254Z,99065.59
2023-03-07T04:01:08.288Z,99074.25
2023-03-07T04:03:36.396Z,99070.59
2023-03-07T04:06:04.632Z,99058.69
2023-03-07T04:08:32.013Z,99068.13
2023-03-07T04:10:58.626Z,99054.19
2023-03-07T04:13:25.236Z,99057.72
2023-03-07T04:15:52.353Z,99059.38
2023-03-07T04:18:19.199Z,99058.13
2023-03-07T04:20:45.669Z,99054.00
2023-03-07T04:23:12.151Z,99056.97
2023-03-07T04:25:38.597Z,99050.94
2023-03-07T04:28:05.076Z,99055.75
2023-03-07T04:30:31.475Z,99050.94
2023-03-07T04:32:57.847Z,99047.31
2023-03-07T04:35:24.284Z,99048.03
2023-03-07T04:37:50.680Z,99045.72
2023-03-07T04:40:17.419Z,99033.53
2023-03-07T04:42:43.770Z,99040.38
2023-03-07T04:45:10.674Z,99039.16
2023-03-07T04:47:37.077Z,99036.97
2023-03-07T04:50:03.597Z,99027.31
2023-03-07T04:52:30.012Z,99028.31
2023-03-07T04:54:56.420Z,99022.59
2023-03-07T04:57:22.803Z,99034.00
2023-03-07T04:59:49.205Z,99031.78
2023-03-07T05:02:15.560Z,99028.59
2023-03-07T05:04:41.994Z,99023.19
2023-03-07T05:07:09.045Z,99028.84
2023-03-07T05:09:35.818Z,99052.38
2023-03-07T05:12:02.224Z,99043.50
2023-03-07T05:14:28.614Z,99040.63
2023-03-07T05:16:55.115Z,99037.94
2023-03-07T05:19:22.178Z,99039.47
2023-03-07T05:21:49.217Z,99028.22
2023-03-07T05:24:15.677Z,99035.66
2023-03-07T05:26:42.145Z,99032.16
2023-03-07T05:29:08.504Z,99022.19
2023-03-07T05:31:36.199Z,99027.88
2023-03-07T05:34:02.667Z,99036.47
2023-03-07T05:36:29.102Z,99037.94
2023-03-07T05:38:56.982Z,99038.41
2023-03-07T05:41:23.586Z,99026.88
2023-03-07T05:43:49.934Z,99025.19
2023-03-07T05:46:16.329Z,99029.13
2023-03-07T05:48:42.689Z,99019.16
2023-03-07T05:51:09.053Z,99025.94
2023-03-07T05:53:35.489Z,99029.53
2023-03-07T05:56:01.861Z,99022.81
2023-03-07T05:58:28.231Z,99022.13
2023-03-07T06:00:54.631Z,99031.97
2023-03-07T06:03:21.025Z,99025.00
2023-03-07T06:05:50.796Z,99020.50
2023-03-07T06:08:17.238Z,99022.81
2023-03-07T06:10:43.650Z,99029.16
2023-03-07T06:13:16.353Z,99028.19
2023-03-07T06:15:43.006Z,99023.78
2023-03-07T06:18:09.456Z,99030.28
2023-03-07T06:20:35.825Z,99033.59
2023-03-07T06:23:02.232Z,99031.59
2023-03-07T06:25:28.860Z,99036.38
2023-03-07T06:28:00.801Z,99023.13
2023-03-07T06:30:28.442Z,99020.06
2023-03-07T06:32:54.827Z,99023.97
2023-03-07T06:35:21.421Z,99023.09
2023-03-07T06:37:48.808Z,99031.84
2023-03-07T06:40:15.566Z,99030.47
2023-03-07T06:42:43.218Z,99041.88
2023-03-07T06:45:10.012Z,99029.97
2023-03-07T06:47:38.112Z,99040.94
2023-03-07T06:50:06.188Z,99038.47
2023-03-07T06:52:32.581Z,99037.31
2023-03-07T06:55:00.545Z,99031.19
2023-03-07T06:57:26.972Z,99038.56
2023-03-07T06:59:53.362Z,99057.31
2023-03-07T07:02:22.956Z,99054.16
2023-03-07T07:04:49.549Z,99032.53
2023-03-07T07:07:15.980Z,99037.94
2023-03-07T07:09:43.788Z,99057.94
2023-03-07T07:12:10.348Z,99045.28
2023-03-07T07:14:36.849Z,99040.53
2023-03-07T07:17:03.524Z,99042.44
2023-03-07T07:19:30.124Z,99043.19
2023-03-07T07:21:57.464Z,99044.13
2023-03-07T07:24:25.402Z,99061.13
2023-03-07T07:26:52.094Z,99051.88
2023-03-07T07:29:18.579Z,99066.31
2023-03-07T07:31:45.101Z,99057.41
2023-03-07T07:34:12.132Z,99063.53
2023-03-07T07:36:38.554Z,99068.72
2023-03-07T07:39:05.841Z,99075.63
2023-03-07T07:41:33.417Z,99067.38
2023-03-07T07:43:59.976Z,99057.16
2023-03-07T07:46:28.430Z,99078.25
2023-03-07T07:48:55.465Z,99092.03
2023-03-07T07:51:22.003Z,99097.84
2023-03-07T07:53:48.510Z,99107.06
2023-03-07T07:56:16.016Z,99088.19
2023-03-07T07:58:44.044Z,99099.16
2023-03-07T08:01:15.386Z,99104.16
2023-03-07T08:03:41.816Z,99104.00
2023-03-07T08:06:08.705Z,99109.09
2023-03-07T08:08:35.165Z,99104.47
2023-03-07T08:11:01.605Z,99107.75
2023-03-07T08:13:28.476Z,99104.91
2023-03-07T08:15:54.938Z,99098.84
2023-03-07T08:18:21.376Z,99106.06
2023-03-07T08:20:47.846Z,99102.25
2023-03-07T08:23:14.289Z,99112.06
2023-03-07T08:25:40.670Z,99099.69
2023-03-07T08:28:07.054Z,99111.44
2023-03-07T08:30:34.871Z,99123.84
2023-03-07T08:33:01.311Z,99122.25
2023-03-07T08:35:28.397Z,99118.22
2023-03-07T08:37:59.604Z,99118.22
2023-03-07T08:40:27.473Z,99125.84
2023-03-07T08:42:55.186Z,99131.59
2023-03-07T08:45:25.067Z,99129.81
2023-03-07T08:47:55.566Z,99123.97
2023-03-07T08:50:24.126Z,99131.25
2023-03-07T08:52:51.043Z,99119.53
2023-03-07T08:55:17.630Z,99131.47
2023-03-07T08:57:45.771Z,99133.69
2023-03-07T09:00:12.614Z,99143.88
2023-03-07T09:02:39.694Z,99131.38
2023-03-07T09:05:06.533Z,99143.00
2023-03-07T09:07:33.950Z,99132.00
2023-03-07T09:10:00.371Z,99140.50
2023-03-07T09:12:26.778Z,99138.50
2023-03-07T09:14:54.115Z,99137.50
2023-03-07T09:17:20.840Z,99134.59
2023-03-07T09:19:47.618Z,99133.59
2023-03-07T09:22:14.060Z,99126.09
2023-03-07T09:24:40.528Z,99135.88
2023-03-07T09:27:06.950Z,99133.38
2023-03-07T09:29:33.358Z,99133.06
2023-03-07T09:32:02.911Z,99141.31
2023-03-07T09:34:29.410Z,99138.16
2023-03-07T09:36:56.106Z,99142.94
2023-03-07T09:39:22.671Z,99135.53
2023-03-07T09:41:58.158Z,99146.00
2023-03-07T09:44:42.547Z,99144.72
2023-03-07T09:47:37.102Z,99145.91
2023-03-07T09:50:04.354Z,99153.84
2023-03-07T09:52:35.337Z,99150.44
2023-03-07T09:55:05.841Z,99148.34
2023-03-07T09:57:34.621Z,99146.41
2023-03-07T10:00:06.204Z,99156.09
2023-03-07T10:02:35.297Z,99144.97
2023-03-07T10:05:32.184Z,99149.28
2023-03-07T10:08:01.650Z,99141.31
2023-03-07T10:10:36.264Z,99143.75
2023-03-07T10:13:15.811Z,99143.13
2023-03-07T10:15:51.938Z,99146.78
2023-03-07T10:18:34.589Z,99139.28
2023-03-07T10:21:26.720Z,99148.41
2023-03-07T10:24:02.552Z,99162.50
2023-03-07T10:26:30.034Z,99161.66
2023-03-07T10:28:57.916Z,99168.31
2023-03-07T10:31:27.969Z,99174.38
2023-03-07T10:33:54.978Z,99173.25
2023-03-07T10:36:38.008Z,99167.56
2023-03-07T10:39:25.414Z,99167.31
2023-03-07T10:41:52.138Z,99176.41
2023-03-07T10:44:19.844Z,99182.88
2023-03-07T10:46:55.270Z,99180.91
2023-03-07T10:49:26.591Z,99180.78
2023-03-07T10:51:59.321Z,99184.31
2023-03-07T10:54:32.990Z,99186.41
2023-03-07T10:57:05.517Z,99186.41
2023-03-07T10:59:32.021Z,99177.22
2023-03-07T11:02:00.229Z,99168.38
2023-03-07T11:04:43.465Z,99179.13
2023-03-07T11:07:28.617Z,99164.47
2023-03-07T11:09:56.690Z,99180.59
2023-03-07T11:12:24.711Z,99183.94
2023-03-07T11:14:55.164Z,99186.28
2023-03-07T11:17:40.698Z,99172.25
2023-03-07T11:20:25.898Z,99173.25
2023-03-07T11:23:31.978Z,99168.31
2023-03-07T11:26:15.166Z,99168.25
2023-03-07T11:28:41.623Z,99178.34
2023-03-07T11:31:17.569Z,99177.00
2023-03-07T11:33:58.557Z,99180.16
2023-03-07T11:36:33.453Z,99179.22
2023-03-07T11:39:13.852Z,99181.09
2023-03-07T11:41:42.403Z,99180.53
2023-03-07T11:44:31.860Z,99178.94
2023-03-07T11:47:20.224Z,99184.66
2023-03-07T11:50:01.755Z,99191.97
2023-03-07T11:52:49.815Z,99189.00
2023-03-07T11:55:22.475Z,99194.88
2023-03-07T11:58:16.514Z,99195.09
2023-03-07T12:00:58.562Z,99195.81
2023-03-07T12:03:48.260Z,99195.56
2023-03-07T12:06:21.092Z,99193.50
2023-03-07T12:09:12.605Z,99206.53
2023-03-07T12:11:57.738Z,99194.38
2023-03-07T12:14:36.373Z,99204.13
2023-03-07T12:17:24.098Z,99195.31
2023-03-07T12:20:29.656Z,99198.06
2023-03-07T12:23:11.169Z,99185.81
2023-03-07T12:25:43.926Z,99184.06
2023-03-07T12:28:24.818Z,99201.94
2023-03-07T12:31:11.416Z,99189.97
2023-03-07T12:33:58.910Z,99195.09
2023-03-07T12:36:36.544Z,99203.41
2023-03-07T12:39:27.335Z,99207.38
2023-03-07T12:42:05.862Z,99194.03
2023-03-07T12:44:39.438Z,99186.75
2023-03-07T12:47:15.508Z,99191.53
2023-03-07T12:49:59.928Z,99201.09
2023-03-07T12:52:34.500Z,99193.63
2023-03-07T12:55:22.257Z,99195.69
2023-03-07T12:57:55.821Z,99197.03
2023-03-07T13:00:22.913Z,99205.59
2023-03-07T13:03:01.101Z,99209.06
2023-03-07T13:05:28.222Z,99210.00
2023-03-07T13:07:55.037Z,99207.94
2023-03-07T13:10:23.518Z,99208.84
2023-03-07T13:12:52.019Z,99206.00
2023-03-07T13:15:18.286Z,99207.25
2023-03-07T13:17:44.776Z,99215.28
2023-03-07T13:20:19.834Z,99205.22
2023-03-07T13:22:46.305Z,99212.19
2023-03-07T13:25:36.008Z,99214.22
2023-03-07T13:28:04.154Z,99200.75
2023-03-07T13:30:32.282Z,99206.66
2023-03-07T13:33:03.780Z,99204.88
2023-03-07T13:35:39.225Z,99227.22
2023-03-07T13:38:44.307Z,99213.47
2023-03-07T13:41:12.169Z,99214.13
2023-03-07T13:43:44.560Z,99221.00
2023-03-07T13:46:42.817Z,99217.59
2023-03-07T13:49:09.234Z,99221.00
2023-03-07T13:51:35.660Z,99209.16
2023-03-07T13:54:03.889Z,99198.53
2023-03-07T13:56:35.402Z,99215.50
2023-03-07T13:59:13.956Z,99228.94
2023-03-07T14:01:46.519Z,99227.03
2023-03-07T14:04:32.890Z,99236.44
2023-03-07T14:07:28.211Z,99237.63
2023-03-07T14:10:19.553Z,99240.13
2023-03-07T14:13:05.537Z,99228.84
2023-03-07T14:15:57.202Z,99236.81
2023-03-07T14:18:48.121Z,99234.81
2023-03-07T14:21:43.951Z,99232.75
2023-03-07T14:24:15.508Z,99229.03
2023-03-07T14:26:48.421Z,99231.00
2023-03-07T14:29:24.286Z,99243.91
2023-03-07T14:31:53.138Z,99248.44
2023-03-07T14:34:27.586Z,99243.31
2023-03-07T14:37:11.972Z,99243.63
2023-03-07T14:40:22.080Z,99239.25
2023-03-07T14:42:53.252Z,99234.59
2023-03-07T14:45:38.575Z,99231.94
2023-03-07T14:48:10.960Z,99239.78
2023-03-07T14:50:43.942Z,99234.75
2023-03-07T14:53:18.055Z,99234.91
2023-03-07T14:55:45.524Z,99245.28
2023-03-07T14:58:21.980Z,99244.44
2023-03-07T15:00:59.570Z,99242.56
2023-03-07T15:03:26.602Z,99242.66
2023-03-07T15:05:55.523Z,99248.19
2023-03-07T15:08:25.878Z,99256.50
2023-03-07T15:11:06.634Z,99265.31
2023-03-07T15:14:06.985Z,99265.03
2023-03-07T15:16:46.170Z,99275.63
2023-03-07T15:19:19.151Z,99273.28
2023-03-07T15:21:48.067Z,99266.06
2023-03-07T15:24:22.767Z,99270.50
2023-03-07T15:26:51.739Z,99271.25
2023-03-07T15:29:20.638Z,99277.72
2023-03-07T15:31:52.773Z,99272.22
2023-03-07T15:34:26.187Z,99282.00
2023-03-07T15:36:53.295Z,99275.31
2023-03-07T15:39:34.432Z,99282.19
2023-03-07T15:42:05.711Z,99281.66
2023-03-07T15:44:33.200Z,99284.31
2023-03-07T15:47:05.068Z,99281.53
2023-03-07T15:49:41.926Z,99288.44
2023-03-07T15:52:19.620Z,99287.16
2023-03-07T15:54:50.187Z,99288.09
2023-03-07T15:57:21.924Z,99283.94
2023-03-07T16:00:14.868Z,99280.66
2023-03-07T16:02:44.879Z,99291.06
2023-03-07T16:05:21.977Z,99280.56
2023-03-07T16:07:52.145Z,99290.03
2023-03-07T16:10:19.442Z,99289.75
2023-03-07T16:12:46.946Z,99292.94
2023-03-07T16:15:14.415Z,99288.13
2023-03-07T16:17:40.927Z,99293.56
2023-03-07T16:20:22.020Z,99290.88
2023-03-07T16:22:48.422Z,99294.50
2023-03-07T16:25:15.920Z,99299.28
2023-03-07T16:27:50.202Z,99310.88
2023-03-07T16:30:19.460Z,99306.72
2023-03-07T16:32:45.904Z,99302.16
2023-03-07T16:35:15.615Z,99304.59
2023-03-07T16:37:42.180Z,99311.25
2023-03-07T16:40:09.797Z,99319.56
2023-03-07T16:42:36.332Z,99317.56
2023-03-07T16:45:05.082Z,99328.16
2023-03-07T16:47:31.471Z,99321.63
2023-03-07T16:49:58.952Z,99317.38
2023-03-07T16:52:25.782Z,99317.28
2023-03-07T16:54:52.265Z,99331.91
2023-03-07T16:57:18.702Z,99331.00
2023-03-07T16:59:46.934Z,99329.22
2023-03-07T17:02:17.035Z,99323.66
2023-03-07T17:04:44.519Z,99317.09
2023-03-07T17:07:19.274Z,99332.97
2023-03-07T17:09:45.696Z,99328.84
2023-03-07T17:12:12.342Z,99331.00
2023-03-07T17:14:39.215Z,99325.53
2023-03-07T17:17:06.288Z,99342.06
2023-03-07T17:19:33.127Z,99347.03
2023-03-07T17:22:01.089Z,99345.78
2023-03-07T17:24:29.016Z,99344.72
2023-03-07T17:26:56.782Z,99355.63
2023-03-07T17:29:37.007Z,99361.84
2023-03-07T17:32:04.014Z,99370.22
2023-03-07T17:34:32.434Z,99375.00
2023-03-07T17:37:00.227Z,99375.50
2023-03-07T17:39:29.407Z,99372.25
2023-03-07T17:41:56.365Z,99376.50
2023-03-07T17:44:22.985Z,99379.47
2023-03-07T17:46:49.375Z,99380.38
2023-03-07T17:49:15.752Z,99378.66
2023-03-07T17:51:42.113Z,99377.41
2023-03-07T17:54:08.880Z,99389.47
2023-03-07T17:56:36.819Z,99386.59
2023-03-07T17:59:04.173Z,99390.91
2023-03-07T18:01:32.016Z,99394.44
2023-03-07T18:03:58.502Z,99396.16
2023-03-07T18:06:25.494Z,99405.50
2023-03-07T18:08:52.034Z,99398.97
2023-03-07T18:11:18.536Z,99424.34
2023-03-07T18:13:45.137Z,99409.63
2023-03-07T18:16:11.632Z,99419.72
2023-03-07T18:18:47.654Z,99420.72
2023-03-07T18:21:24.357Z,99415.97
2023-03-07T18:23:51.984Z,99427.50
2023-03-07T18:26:19.726Z,99428.50
2023-03-07T18:28:47.549Z,99426.31
2023-03-07T18:31:19.432Z,99433.22
2023-03-07T18:33:50.747Z,99438.03
2023-03-07T18:36:17.703Z,99424.19
2023-03-07T18:38:44.183Z,99443.91
2023-03-07T18:41:17.130Z,99433.34
2023-03-07T18:43:43.495Z,99436.47
2023-03-07T18:46:12.252Z,99440.94
2023-03-07T18:48:39.084Z,99440.69
2023-03-07T18:51:07.838Z,99447.13
2023-03-07T18:53:34.896Z,99444.81
2023-03-07T18:56:10.185Z,99449.44
2023-03-07T18:58:36.903Z,99446.41
2023-03-07T19:01:13.379Z,99451.56
2023-03-07T19:03:40.402Z,99449.69
2023-03-07T19:06:07.984Z,99449.69
2023-03-07T19:08:34.386Z,99446.31
2023-03-07T19:11:08.787Z,99460.19
2023-03-07T19:13:35.314Z,99459.28
2023-03-07T19:16:07.490Z,99470.25
2023-03-07T19:18:34.857Z,99467.72
2023-03-07T19:21:05.697Z,99469.13
2023-03-07T19:23:32.337Z,99469.25
2023-03-07T19:26:06.930Z,99474.09
2023-03-07T19:28:33.796Z,99474.41
2023-03-07T19:31:17.808Z,99483.69
2023-03-07T19:33:45.380Z,99473.13
2023-03-07T19:36:17.357Z,99490.56
2023-03-07T19:38:43.724Z,99502.72
2023-03-07T19:41:12.940Z,99496.00
2023-03-07T19:43:39.955Z,99501.66
2023-03-07T19:46:08.378Z,99501.84
2023-03-07T19:48:35.329Z,99505.88
2023-03-07T19:51:02.175Z,99499.19
2023-03-07T19:53:28.790Z,99506.72
2023-03-07T19:55:55.781Z,99502.03
2023-03-07T19:58:22.438Z,99503.06
2023-03-07T20:00:48.837Z,99502.28
2023-03-07T20:03:17.406Z,99508.41
2023-03-07T20:05:45.639Z,99506.56
2023-03-07T20:08:12.361Z,99509.78
2023-03-07T20:10:39.339Z,99507.56
2023-03-07T20:13:06.414Z,99517.22
2023-03-07T20:15:34.221Z,99507.50
2023-03-07T20:18:02.283Z,99514.31
2023-03-07T20:20:28.918Z,99514.75
2023-03-07T20:22:56.669Z,99528.72
2023-03-07T20:25:23.104Z,99515.13
2023-03-07T20:27:49.783Z,99516.03
2023-03-07T20:30:16.574Z,99531.03
2023-03-07T20:32:42.977Z,99517.91
2023-03-07T20:35:09.815Z,99516.75
2023-03-07T20:37:36.185Z,99518.88
2023-03-07T20:40:04.647Z,99528.28
2023-03-07T20:42:31.216Z,99532.47
2023-03-07T20:44:57.602Z,99534.84
2023-03-07T20:47:24.007Z,99532.72
2023-03-07T20:49:51.430Z,99531.28
2023-03-07T20:52:17.867Z,99538.03
2023-03-07T20:54:44.359Z,99533.66
2023-03-07T20:57:10.859Z,99541.16
2023-03-07T20:59:37.289Z,99537.06
2023-03-07T21:02:05.544Z,99547.88
2023-03-07T21:04:31.978Z,99551.66
2023-03-07T21:06:58.422Z,99554.59
2023-03-07T21:09:24.843Z,99555.78
2023-03-07T21:11:51.273Z,99558.38
2023-03-07T21:14:18.995Z,99559.09
2023-03-07T21:16:45.776Z,99557.13
2023-03-07T21:19:12.658Z,99562.72
2023-03-07T21:21:39.802Z,99567.59
2023-03-07T21:24:06.609Z,99561.59
2023-03-07T21:26:35.844Z,99574.31
2023-03-07T21:29:03.779Z,99569.94
2023-03-07T21:31:32.581Z,99568.22
2023-03-07T21:34:04.557Z,99572.06
2023-03-07T21:36:33.987Z,99565.34
2023-03-07T21:39:01.058Z,99570.97
2023-03-07T21:41:27.654Z,99570.63
2023-03-07T21:43:55.403Z,99571.00
2023-03-07T21:46:22.111Z,99566.44
2023-03-07T21:48:48.689Z,99570.69
2023-03-07T21:51:15.248Z,99560.91
2023-03-07T21:53:41.651Z,99574.50
2023-03-07T21:56:10.265Z,99575.53
2023-03-07T21:58:36.970Z,99581.19
2023-03-07T22:01:17.929Z,99588.06
2023-03-07T22:03:44.385Z,99581.38
2023-03-07T22:06:13.106Z,99594.19
2023-03-07T22:08:39.736Z,99603.22
2023-03-07T22:11:07.828Z,99600.22
2023-03-07T22:13:35.920Z,99596.41
2023-03-07T22:16:05.380Z,99602.13
2023-03-07T22:18:32.979Z,99600.31
2023-03-07T22:20:59.776Z,99601.88
2023-03-07T22:23:27.154Z,99602.28
2023-03-07T22:25:53.612Z,99608.69
2023-03-07T22:28:20.319Z,99610.47
2023-03-07T22:30:47.259Z,99613.16
2023-03-07T22:33:13.659Z,99610.97
2023-03-07T22:35:40.084Z,99611.72
2023-03-07T22:38:06.540Z,99611.72
2023-03-07T22:40:32.930Z,99611.75
2023-03-07T22:42:59.360Z,99614.72
2023-03-07T22:45:25.876Z,99617.03
2023-03-07T22:47:52.300Z,99615.84
2023-03-07T22:50:18.704Z,99617.78
2023-03-07T22:52:45.105Z,99614.00
2023-03-07T22:55:11.457Z,99610.66
2023-03-07T22:57:37.873Z,99612.53
2023-03-07T23:00:04.768Z,99617.75
2023-03-07T23:02:31.247Z,99610.28
2023-03-07T23:04:57.632Z,99607.66
2023-03-07T23:07:24.106Z,99614.75
2023-03-07T23:09:50.489Z,99612.94
2023-03-07T23:12:16.918Z,99616.31
2023-03-07T23:14:43.330Z,99623.84
2023-03-07T23:17:09.779Z,99628.34
2023-03-07T23:19:36.327Z,99627.19
2023-03-07T23:22:03.058Z,99630.97
2023-03-07T23:24:29.446Z,99637.31
2023-03-07T23:26:56.126Z,99620.00
2023-03-07T23:29:22.677Z,99623.81
2023-03-07T23:31:49.205Z,99625.34
2023-03-07T23:34:17.939Z,99624.94
2023-03-07T23:36:44.871Z,99629.09
2023-03-07T23:39:11.698Z,99629.03
2023-03-07T23:41:38.302Z,99625.25
2023-03-07T23:44:05.121Z,99633.09
2023-03-07T23:46:31.567Z,99624.00
2023-03-07T23:48:58.140Z,99629.00
2023-03-07T23:51:24.864Z,99628.22
2023-03-07T23:53:51.311Z,99625.34
2023-03-07T23:56:17.820Z,99632.41
2023-03-07T23:58:44.250Z,99635.44
